sensor_id;sensor_type;location;lat;lon;timestamp;P1;durP1;ratioP1;P2;durP2;ratioP2
57790;SDS011;43621;51.798;21.588;2022-10-31T00:03:04;23.10;;;11.00;;
57790;SDS011;43621;51.798;21.588;2022-10-31T00:07:09;19.90;;;10.70;;
57790;SDS011;43621;51.798;21.588;2022-10-31T00:11:14;17.50;;;10.90;;
57790;SDS011;43621;51.798;21.588;2022-10-31T00:15:19;19.60;;;12.00;;
57790;SDS011;43621;51.798;21.588;2022-10-31T00:19:24;25.30;;;14.40;;
57790;SDS011;43621;51.798;21.588;2022-10-31T00:23:29;22.50;;;14.40;;
57790;SDS011;43621;51.798;21.588;2022-10-31T00:27:34;25.10;;;13.90;;
57790;SDS011;43621;51.798;21.588;2022-10-31T00:31:39;21.10;;;14.30;;
57790;SDS011;43621;51.798;21.588;2022-10-31T00:35:48;22.20;;;14.40;;
57790;SDS011;43621;51.798;21.588;2022-10-31T00:39:53;22.70;;;14.20;;
57790;SDS011;43621;51.798;21.588;2022-10-31T00:43:58;18.60;;;12.20;;
57790;SDS011;43621;51.798;21.588;2022-10-31T00:48:04;21.90;;;13.70;;
57790;SDS011;43621;51.798;21.588;2022-10-31T00:52:09;23.40;;;13.90;;
57790;SDS011;43621;51.798;21.588;2022-10-31T00:56:14;21.10;;;14.00;;
57790;SDS011;43621;51.798;21.588;2022-10-31T01:00:20;25.10;;;13.80;;
57790;SDS011;43621;51.798;21.588;2022-10-31T01:04:25;24.20;;;13.90;;
57790;SDS011;43621;51.798;21.588;2022-10-31T01:08:29;20.70;;;13.10;;
57790;SDS011;43621;51.798;21.588;2022-10-31T01:12:37;22.30;;;14.60;;
57790;SDS011;43621;51.798;21.588;2022-10-31T01:16:43;25.10;;;14.30;;
57790;SDS011;43621;51.798;21.588;2022-10-31T01:20:47;25.40;;;15.40;;
57790;SDS011;43621;51.798;21.588;2022-10-31T01:25:02;31.70;;;16.80;;
57790;SDS011;43621;51.798;21.588;2022-10-31T01:29:08;31.50;;;17.20;;
57790;SDS011;43621;51.798;21.588;2022-10-31T01:33:13;30.30;;;17.10;;
57790;SDS011;43621;51.798;21.588;2022-10-31T01:37:18;31.80;;;16.60;;
57790;SDS011;43621;51.798;21.588;2022-10-31T01:41:24;30.60;;;16.20;;
57790;SDS011;43621;51.798;21.588;2022-10-31T01:45:31;29.90;;;16.90;;
57790;SDS011;43621;51.798;21.588;2022-10-31T01:49:37;32.10;;;16.70;;
57790;SDS011;43621;51.798;21.588;2022-10-31T01:53:45;29.00;;;16.40;;
57790;SDS011;43621;51.798;21.588;2022-10-31T01:57:51;25.10;;;14.10;;
57790;SDS011;43621;51.798;21.588;2022-10-31T02:02:00;26.40;;;13.90;;
57790;SDS011;43621;51.798;21.588;2022-10-31T02:06:05;22.10;;;12.80;;
57790;SDS011;43621;51.798;21.588;2022-10-31T02:10:14;25.40;;;12.60;;
57790;SDS011;43621;51.798;21.588;2022-10-31T02:14:19;21.50;;;12.10;;
57790;SDS011;43621;51.798;21.588;2022-10-31T02:18:27;20.20;;;11.50;;
57790;SDS011;43621;51.798;21.588;2022-10-31T02:22:35;16.90;;;10.40;;
57790;SDS011;43621;51.798;21.588;2022-10-31T02:27:00;17.20;;;9.80;;
57790;SDS011;43621;51.798;21.588;2022-10-31T02:31:18;18.50;;;10.00;;
57790;SDS011;43621;51.798;21.588;2022-10-31T02:35:43;15.10;;;9.00;;
57790;SDS011;43621;51.798;21.588;2022-10-31T02:40:01;18.50;;;9.20;;
57790;SDS011;43621;51.798;21.588;2022-10-31T02:44:16;16.30;;;9.00;;
57790;SDS011;43621;51.798;21.588;2022-10-31T02:52:32;15.90;;;8.50;;
57790;SDS011;43621;51.798;21.588;2022-10-31T02:56:38;14.50;;;9.20;;
57790;SDS011;43621;51.798;21.588;2022-10-31T03:05:22;15.60;;;9.00;;
57790;SDS011;43621;51.798;21.588;2022-10-31T03:09:37;13.80;;;9.50;;
57790;SDS011;43621;51.798;21.588;2022-10-31T03:13:50;16.40;;;9.70;;
57790;SDS011;43621;51.798;21.588;2022-10-31T03:18:02;15.20;;;8.80;;
57790;SDS011;43621;51.798;21.588;2022-10-31T03:22:12;13.00;;;8.60;;
57790;SDS011;43621;51.798;21.588;2022-10-31T03:26:22;14.50;;;9.10;;
57790;SDS011;43621;51.798;21.588;2022-10-31T03:30:28;14.30;;;8.80;;
57790;SDS011;43621;51.798;21.588;2022-10-31T03:34:36;13.90;;;8.60;;
57790;SDS011;43621;51.798;21.588;2022-10-31T03:38:44;15.30;;;9.40;;
57790;SDS011;43621;51.798;21.588;2022-10-31T03:42:51;13.60;;;8.70;;
57790;SDS011;43621;51.798;21.588;2022-10-31T03:47:01;12.00;;;8.10;;
57790;SDS011;43621;51.798;21.588;2022-10-31T03:51:07;14.30;;;8.60;;
57790;SDS011;43621;51.798;21.588;2022-10-31T03:55:18;14.20;;;9.00;;
57790;SDS011;43621;51.798;21.588;2022-10-31T03:59:30;13.90;;;8.90;;
57790;SDS011;43621;51.798;21.588;2022-10-31T04:03:39;14.10;;;9.50;;
57790;SDS011;43621;51.798;21.588;2022-10-31T04:07:46;13.50;;;8.60;;
57790;SDS011;43621;51.798;21.588;2022-10-31T04:11:54;13.00;;;8.20;;
57790;SDS011;43621;51.798;21.588;2022-10-31T04:16:03;13.30;;;8.70;;
57790;SDS011;43621;51.798;21.588;2022-10-31T04:20:10;14.20;;;9.70;;
57790;SDS011;43621;51.798;21.588;2022-10-31T04:24:18;15.00;;;9.80;;
57790;SDS011;43621;51.798;21.588;2022-10-31T04:28:23;19.40;;;9.40;;
57790;SDS011;43621;51.798;21.588;2022-10-31T04:32:28;14.20;;;8.90;;
57790;SDS011;43621;51.798;21.588;2022-10-31T04:36:32;16.80;;;8.80;;
57790;SDS011;43621;51.798;21.588;2022-10-31T04:40:37;13.70;;;8.80;;
57790;SDS011;43621;51.798;21.588;2022-10-31T04:44:42;15.00;;;9.70;;
57790;SDS011;43621;51.798;21.588;2022-10-31T04:48:47;14.30;;;8.80;;
57790;SDS011;43621;51.798;21.588;2022-10-31T04:52:52;13.70;;;9.20;;
57790;SDS011;43621;51.798;21.588;2022-10-31T04:56:57;13.80;;;9.30;;
57790;SDS011;43621;51.798;21.588;2022-10-31T05:01:02;13.40;;;8.80;;
57790;SDS011;43621;51.798;21.588;2022-10-31T05:05:07;14.10;;;8.50;;
57790;SDS011;43621;51.798;21.588;2022-10-31T05:09:12;11.50;;;8.80;;
57790;SDS011;43621;51.798;21.588;2022-10-31T05:13:17;13.40;;;8.90;;
57790;SDS011;43621;51.798;21.588;2022-10-31T05:17:22;13.50;;;8.80;;
57790;SDS011;43621;51.798;21.588;2022-10-31T05:21:27;14.00;;;8.80;;
57790;SDS011;43621;51.798;21.588;2022-10-31T05:25:31;15.60;;;9.30;;
57790;SDS011;43621;51.798;21.588;2022-10-31T05:29:36;16.20;;;8.80;;
57790;SDS011;43621;51.798;21.588;2022-10-31T05:33:41;24.00;;;9.80;;
57790;SDS011;43621;51.798;21.588;2022-10-31T05:37:46;13.60;;;9.20;;
57790;SDS011;43621;51.798;21.588;2022-10-31T05:41:51;16.50;;;9.50;;
57790;SDS011;43621;51.798;21.588;2022-10-31T05:45:56;17.90;;;10.80;;
57790;SDS011;43621;51.798;21.588;2022-10-31T05:50:01;15.30;;;9.90;;
57790;SDS011;43621;51.798;21.588;2022-10-31T05:54:07;15.90;;;10.10;;
57790;SDS011;43621;51.798;21.588;2022-10-31T05:58:12;18.90;;;11.10;;
57790;SDS011;43621;51.798;21.588;2022-10-31T06:02:16;19.30;;;10.50;;
57790;SDS011;43621;51.798;21.588;2022-10-31T06:06:21;22.90;;;11.10;;
57790;SDS011;43621;51.798;21.588;2022-10-31T06:10:27;28.10;;;14.30;;
57790;SDS011;43621;51.798;21.588;2022-10-31T06:14:32;27.80;;;14.10;;
57790;SDS011;43621;51.798;21.588;2022-10-31T06:18:37;21.10;;;12.60;;
57790;SDS011;43621;51.798;21.588;2022-10-31T06:22:41;21.30;;;12.30;;
57790;SDS011;43621;51.798;21.588;2022-10-31T06:26:46;26.90;;;12.90;;
57790;SDS011;43621;51.798;21.588;2022-10-31T06:30:51;35.40;;;17.90;;
57790;SDS011;43621;51.798;21.588;2022-10-31T06:34:56;39.10;;;22.30;;
57790;SDS011;43621;51.798;21.588;2022-10-31T06:39:01;40.30;;;27.80;;
57790;SDS011;43621;51.798;21.588;2022-10-31T06:43:06;59.70;;;38.40;;
57790;SDS011;43621;51.798;21.588;2022-10-31T06:47:11;44.60;;;26.10;;
57790;SDS011;43621;51.798;21.588;2022-10-31T06:51:16;26.50;;;14.40;;
57790;SDS011;43621;51.798;21.588;2022-10-31T06:55:21;22.50;;;12.90;;
57790;SDS011;43621;51.798;21.588;2022-10-31T06:59:27;25.70;;;12.00;;
57790;SDS011;43621;51.798;21.588;2022-10-31T07:03:31;31.70;;;17.40;;
57790;SDS011;43621;51.798;21.588;2022-10-31T07:07:36;21.80;;;12.40;;
57790;SDS011;43621;51.798;21.588;2022-10-31T07:11:41;23.60;;;11.00;;
57790;SDS011;43621;51.798;21.588;2022-10-31T07:15:46;15.10;;;10.70;;
57790;SDS011;43621;51.798;21.588;2022-10-31T07:19:51;20.10;;;11.20;;
57790;SDS011;43621;51.798;21.588;2022-10-31T07:23:56;14.60;;;10.00;;
57790;SDS011;43621;51.798;21.588;2022-10-31T07:28:01;17.50;;;10.80;;
57790;SDS011;43621;51.798;21.588;2022-10-31T07:32:06;20.40;;;10.90;;
57790;SDS011;43621;51.798;21.588;2022-10-31T07:36:11;16.50;;;10.20;;
57790;SDS011;43621;51.798;21.588;2022-10-31T07:40:16;14.60;;;9.80;;
57790;SDS011;43621;51.798;21.588;2022-10-31T07:44:21;13.10;;;9.70;;
57790;SDS011;43621;51.798;21.588;2022-10-31T07:48:26;17.30;;;10.20;;
57790;SDS011;43621;51.798;21.588;2022-10-31T07:52:31;14.00;;;11.40;;
57790;SDS011;43621;51.798;21.588;2022-10-31T07:56:40;16.30;;;11.30;;
57790;SDS011;43621;51.798;21.588;2022-10-31T08:00:45;20.10;;;12.50;;
57790;SDS011;43621;51.798;21.588;2022-10-31T08:04:51;14.10;;;11.10;;
57790;SDS011;43621;51.798;21.588;2022-10-31T08:08:56;16.50;;;10.60;;
57790;SDS011;43621;51.798;21.588;2022-10-31T08:13:01;15.30;;;10.20;;
57790;SDS011;43621;51.798;21.588;2022-10-31T08:17:07;12.50;;;9.60;;
57790;SDS011;43621;51.798;21.588;2022-10-31T08:21:12;13.70;;;8.70;;
57790;SDS011;43621;51.798;21.588;2022-10-31T08:25:17;14.50;;;8.90;;
57790;SDS011;43621;51.798;21.588;2022-10-31T08:29:22;12.00;;;9.00;;
57790;SDS011;43621;51.798;21.588;2022-10-31T08:33:27;14.90;;;9.10;;
57790;SDS011;43621;51.798;21.588;2022-10-31T08:37:32;11.30;;;8.00;;
57790;SDS011;43621;51.798;21.588;2022-10-31T08:41:37;13.00;;;8.40;;
57790;SDS011;43621;51.798;21.588;2022-10-31T08:45:42;12.20;;;8.40;;
57790;SDS011;43621;51.798;21.588;2022-10-31T08:49:50;12.00;;;8.10;;
57790;SDS011;43621;51.798;21.588;2022-10-31T08:53:55;16.70;;;9.40;;
57790;SDS011;43621;51.798;21.588;2022-10-31T08:58:00;15.80;;;9.50;;
57790;SDS011;43621;51.798;21.588;2022-10-31T09:02:07;12.90;;;8.10;;
57790;SDS011;43621;51.798;21.588;2022-10-31T09:06:12;11.40;;;8.10;;
57790;SDS011;43621;51.798;21.588;2022-10-31T09:10:17;11.70;;;8.00;;
57790;SDS011;43621;51.798;21.588;2022-10-31T09:14:22;11.50;;;8.20;;
57790;SDS011;43621;51.798;21.588;2022-10-31T09:18:26;12.20;;;8.30;;
57790;SDS011;43621;51.798;21.588;2022-10-31T09:22:31;14.10;;;8.70;;
57790;SDS011;43621;51.798;21.588;2022-10-31T09:26:36;12.30;;;8.70;;
57790;SDS011;43621;51.798;21.588;2022-10-31T09:30:41;11.80;;;8.40;;
57790;SDS011;43621;51.798;21.588;2022-10-31T09:34:48;12.90;;;9.60;;
57790;SDS011;43621;51.798;21.588;2022-10-31T09:38:53;12.60;;;8.60;;
57790;SDS011;43621;51.798;21.588;2022-10-31T09:43:02;12.80;;;9.30;;
57790;SDS011;43621;51.798;21.588;2022-10-31T09:47:17;10.80;;;9.00;;
57790;SDS011;43621;51.798;21.588;2022-10-31T09:51:31;12.00;;;10.00;;
57790;SDS011;43621;51.798;21.588;2022-10-31T09:55:40;16.00;;;10.20;;
57790;SDS011;43621;51.798;21.588;2022-10-31T09:59:47;13.20;;;10.60;;
57790;SDS011;43621;51.798;21.588;2022-10-31T10:03:53;12.80;;;9.60;;
57790;SDS011;43621;51.798;21.588;2022-10-31T10:08:03;11.50;;;8.70;;
57790;SDS011;43621;51.798;21.588;2022-10-31T10:12:18;13.50;;;8.80;;
57790;SDS011;43621;51.798;21.588;2022-10-31T10:16:35;18.00;;;9.40;;
57790;SDS011;43621;51.798;21.588;2022-10-31T10:20:54;9.60;;;7.80;;
57790;SDS011;43621;51.798;21.588;2022-10-31T10:25:12;12.30;;;9.10;;
57790;SDS011;43621;51.798;21.588;2022-10-31T10:29:31;8.50;;;7.60;;
57790;SDS011;43621;51.798;21.588;2022-10-31T10:33:42;10.40;;;8.20;;
57790;SDS011;43621;51.798;21.588;2022-10-31T10:37:56;10.90;;;7.40;;
57790;SDS011;43621;51.798;21.588;2022-10-31T10:42:06;10.70;;;8.10;;
57790;SDS011;43621;51.798;21.588;2022-10-31T10:46:37;9.90;;;6.60;;
57790;SDS011;43621;51.798;21.588;2022-10-31T10:51:05;9.20;;;7.00;;
57790;SDS011;43621;51.798;21.588;2022-10-31T10:55:22;10.50;;;7.70;;
57790;SDS011;43621;51.798;21.588;2022-10-31T10:59:32;10.90;;;7.40;;
57790;SDS011;43621;51.798;21.588;2022-10-31T11:03:38;9.80;;;7.80;;
57790;SDS011;43621;51.798;21.588;2022-10-31T11:07:44;10.00;;;7.50;;
57790;SDS011;43621;51.798;21.588;2022-10-31T11:11:49;11.00;;;7.80;;
57790;SDS011;43621;51.798;21.588;2022-10-31T11:15:58;11.00;;;7.70;;
57790;SDS011;43621;51.798;21.588;2022-10-31T11:20:25;13.10;;;8.20;;
57790;SDS011;43621;51.798;21.588;2022-10-31T11:24:37;12.10;;;7.30;;
57790;SDS011;43621;51.798;21.588;2022-10-31T11:28:43;11.10;;;7.50;;
57790;SDS011;43621;51.798;21.588;2022-10-31T11:32:58;11.70;;;7.40;;
57790;SDS011;43621;51.798;21.588;2022-10-31T11:37:09;13.50;;;8.10;;
57790;SDS011;43621;51.798;21.588;2022-10-31T11:41:20;16.60;;;9.00;;
57790;SDS011;43621;51.798;21.588;2022-10-31T11:45:31;13.40;;;7.90;;
57790;SDS011;43621;51.798;21.588;2022-10-31T11:49:40;11.20;;;7.90;;
57790;SDS011;43621;51.798;21.588;2022-10-31T11:53:49;13.10;;;8.00;;
57790;SDS011;43621;51.798;21.588;2022-10-31T11:57:56;15.30;;;6.70;;
57790;SDS011;43621;51.798;21.588;2022-10-31T12:02:01;10.00;;;6.70;;
57790;SDS011;43621;51.798;21.588;2022-10-31T12:06:21;15.00;;;7.80;;
57790;SDS011;43621;51.798;21.588;2022-10-31T12:10:32;10.50;;;6.70;;
57790;SDS011;43621;51.798;21.588;2022-10-31T12:14:46;13.10;;;7.00;;
57790;SDS011;43621;51.798;21.588;2022-10-31T12:18:58;12.40;;;7.10;;
57790;SDS011;43621;51.798;21.588;2022-10-31T12:23:09;11.10;;;7.30;;
57790;SDS011;43621;51.798;21.588;2022-10-31T12:27:24;13.00;;;9.70;;
57790;SDS011;43621;51.798;21.588;2022-10-31T12:31:42;19.40;;;12.50;;
57790;SDS011;43621;51.798;21.588;2022-10-31T12:36:00;16.80;;;12.40;;
57790;SDS011;43621;51.798;21.588;2022-10-31T12:40:28;23.80;;;12.70;;
57790;SDS011;43621;51.798;21.588;2022-10-31T12:44:51;15.90;;;12.40;;
57790;SDS011;43621;51.798;21.588;2022-10-31T12:49:17;18.10;;;13.90;;
57790;SDS011;43621;51.798;21.588;2022-10-31T12:53:42;18.60;;;13.20;;
57790;SDS011;43621;51.798;21.588;2022-10-31T12:57:56;22.20;;;14.00;;
57790;SDS011;43621;51.798;21.588;2022-10-31T13:02:10;17.50;;;13.50;;
57790;SDS011;43621;51.798;21.588;2022-10-31T13:06:22;18.00;;;13.30;;
57790;SDS011;43621;51.798;21.588;2022-10-31T13:10:34;18.80;;;13.60;;
57790;SDS011;43621;51.798;21.588;2022-10-31T13:14:44;18.50;;;15.00;;
57790;SDS011;43621;51.798;21.588;2022-10-31T13:18:52;19.00;;;13.70;;
57790;SDS011;43621;51.798;21.588;2022-10-31T13:23:03;18.90;;;14.50;;
57790;SDS011;43621;51.798;21.588;2022-10-31T13:27:15;21.90;;;14.30;;
57790;SDS011;43621;51.798;21.588;2022-10-31T13:31:25;21.70;;;14.70;;
57790;SDS011;43621;51.798;21.588;2022-10-31T13:35:31;18.40;;;13.10;;
57790;SDS011;43621;51.798;21.588;2022-10-31T13:39:49;19.90;;;14.90;;
57790;SDS011;43621;51.798;21.588;2022-10-31T13:44:15;22.80;;;16.00;;
57790;SDS011;43621;51.798;21.588;2022-10-31T13:48:37;20.50;;;14.40;;
57790;SDS011;43621;51.798;21.588;2022-10-31T13:52:45;18.50;;;12.80;;
57790;SDS011;43621;51.798;21.588;2022-10-31T13:56:50;20.90;;;14.10;;
57790;SDS011;43621;51.798;21.588;2022-10-31T14:01:04;22.60;;;15.20;;
57790;SDS011;43621;51.798;21.588;2022-10-31T14:05:21;32.90;;;15.00;;
57790;SDS011;43621;51.798;21.588;2022-10-31T14:09:32;17.90;;;13.00;;
57790;SDS011;43621;51.798;21.588;2022-10-31T14:13:41;21.00;;;14.10;;
57790;SDS011;43621;51.798;21.588;2022-10-31T14:17:48;21.40;;;15.30;;
57790;SDS011;43621;51.798;21.588;2022-10-31T14:21:55;22.00;;;14.10;;
57790;SDS011;43621;51.798;21.588;2022-10-31T14:26:07;21.90;;;13.60;;
57790;SDS011;43621;51.798;21.588;2022-10-31T14:30:32;21.90;;;15.90;;
57790;SDS011;43621;51.798;21.588;2022-10-31T14:34:39;24.40;;;15.80;;
57790;SDS011;43621;51.798;21.588;2022-10-31T14:38:50;67.00;;;49.00;;
57790;SDS011;43621;51.798;21.588;2022-10-31T14:43:04;30.60;;;22.00;;
57790;SDS011;43621;51.798;21.588;2022-10-31T14:47:35;30.50;;;20.40;;
57790;SDS011;43621;51.798;21.588;2022-10-31T14:51:45;35.70;;;24.70;;
57790;SDS011;43621;51.798;21.588;2022-10-31T14:55:53;40.00;;;25.50;;
57790;SDS011;43621;51.798;21.588;2022-10-31T15:00:00;44.00;;;37.80;;
57790;SDS011;43621;51.798;21.588;2022-10-31T15:04:10;32.50;;;20.90;;
57790;SDS011;43621;51.798;21.588;2022-10-31T15:08:33;33.60;;;21.10;;
57790;SDS011;43621;51.798;21.588;2022-10-31T15:12:41;38.10;;;25.80;;
57790;SDS011;43621;51.798;21.588;2022-10-31T15:16:46;40.70;;;24.70;;
57790;SDS011;43621;51.798;21.588;2022-10-31T15:20:51;78.80;;;66.80;;
57790;SDS011;43621;51.798;21.588;2022-10-31T15:24:58;43.90;;;25.70;;
57790;SDS011;43621;51.798;21.588;2022-10-31T15:29:04;50.30;;;31.20;;
57790;SDS011;43621;51.798;21.588;2022-10-31T15:33:20;67.10;;;38.90;;
57790;SDS011;43621;51.798;21.588;2022-10-31T15:37:27;67.80;;;43.50;;
57790;SDS011;43621;51.798;21.588;2022-10-31T15:41:33;148.70;;;93.30;;
57790;SDS011;43621;51.798;21.588;2022-10-31T15:45:45;88.60;;;47.00;;
57790;SDS011;43621;51.798;21.588;2022-10-31T15:49:51;62.70;;;35.00;;
57790;SDS011;43621;51.798;21.588;2022-10-31T15:53:57;70.20;;;41.70;;
57790;SDS011;43621;51.798;21.588;2022-10-31T15:58:03;105.40;;;66.20;;
57790;SDS011;43621;51.798;21.588;2022-10-31T16:02:17;70.30;;;37.00;;
57790;SDS011;43621;51.798;21.588;2022-10-31T16:06:25;151.40;;;84.80;;
57790;SDS011;43621;51.798;21.588;2022-10-31T16:10:32;86.60;;;47.40;;
57790;SDS011;43621;51.798;21.588;2022-10-31T16:14:41;96.40;;;47.70;;
57790;SDS011;43621;51.798;21.588;2022-10-31T16:18:46;118.10;;;66.00;;
57790;SDS011;43621;51.798;21.588;2022-10-31T16:22:52;87.60;;;46.60;;
57790;SDS011;43621;51.798;21.588;2022-10-31T16:27:01;69.60;;;40.20;;
57790;SDS011;43621;51.798;21.588;2022-10-31T16:31:13;79.70;;;47.10;;
57790;SDS011;43621;51.798;21.588;2022-10-31T16:35:23;61.60;;;35.30;;
57790;SDS011;43621;51.798;21.588;2022-10-31T16:39:30;68.30;;;37.40;;
57790;SDS011;43621;51.798;21.588;2022-10-31T16:43:35;61.90;;;35.70;;
57790;SDS011;43621;51.798;21.588;2022-10-31T16:47:40;80.90;;;45.70;;
57790;SDS011;43621;51.798;21.588;2022-10-31T16:51:45;72.00;;;37.90;;
57790;SDS011;43621;51.798;21.588;2022-10-31T16:55:50;105.10;;;54.50;;
57790;SDS011;43621;51.798;21.588;2022-10-31T16:59:57;80.00;;;48.70;;
57790;SDS011;43621;51.798;21.588;2022-10-31T17:04:02;108.60;;;62.20;;
57790;SDS011;43621;51.798;21.588;2022-10-31T17:08:07;71.00;;;41.30;;
57790;SDS011;43621;51.798;21.588;2022-10-31T17:12:13;69.80;;;39.50;;
57790;SDS011;43621;51.798;21.588;2022-10-31T17:16:21;94.50;;;53.50;;
57790;SDS011;43621;51.798;21.588;2022-10-31T17:20:27;106.30;;;58.00;;
57790;SDS011;43621;51.798;21.588;2022-10-31T17:24:33;65.10;;;42.80;;
57790;SDS011;43621;51.798;21.588;2022-10-31T17:28:38;79.50;;;47.10;;
57790;SDS011;43621;51.798;21.588;2022-10-31T17:32:43;70.80;;;38.40;;
57790;SDS011;43621;51.798;21.588;2022-10-31T17:36:50;70.50;;;39.50;;
57790;SDS011;43621;51.798;21.588;2022-10-31T17:40:55;63.80;;;39.10;;
57790;SDS011;43621;51.798;21.588;2022-10-31T17:45:00;81.10;;;48.80;;
57790;SDS011;43621;51.798;21.588;2022-10-31T17:49:05;79.00;;;44.80;;
57790;SDS011;43621;51.798;21.588;2022-10-31T17:53:12;71.80;;;40.30;;
57790;SDS011;43621;51.798;21.588;2022-10-31T17:57:17;41.30;;;24.70;;
57790;SDS011;43621;51.798;21.588;2022-10-31T18:01:23;52.10;;;30.10;;
57790;SDS011;43621;51.798;21.588;2022-10-31T18:05:28;55.90;;;30.60;;
57790;SDS011;43621;51.798;21.588;2022-10-31T18:09:33;67.70;;;32.50;;
57790;SDS011;43621;51.798;21.588;2022-10-31T18:13:37;77.30;;;38.00;;
57790;SDS011;43621;51.798;21.588;2022-10-31T18:17:42;73.60;;;35.80;;
57790;SDS011;43621;51.798;21.588;2022-10-31T18:21:48;69.40;;;39.50;;
57790;SDS011;43621;51.798;21.588;2022-10-31T18:25:53;78.60;;;40.80;;
57790;SDS011;43621;51.798;21.588;2022-10-31T18:29:58;96.90;;;49.50;;
57790;SDS011;43621;51.798;21.588;2022-10-31T18:34:03;82.60;;;40.70;;
57790;SDS011;43621;51.798;21.588;2022-10-31T18:38:08;71.90;;;38.50;;
57790;SDS011;43621;51.798;21.588;2022-10-31T18:42:13;98.70;;;46.80;;
57790;SDS011;43621;51.798;21.588;2022-10-31T18:46:18;73.90;;;35.90;;
57790;SDS011;43621;51.798;21.588;2022-10-31T18:50:24;69.00;;;32.10;;
57790;SDS011;43621;51.798;21.588;2022-10-31T18:54:29;75.70;;;33.90;;
57790;SDS011;43621;51.798;21.588;2022-10-31T18:58:34;94.10;;;38.70;;
57790;SDS011;43621;51.798;21.588;2022-10-31T19:02:39;88.90;;;38.60;;
57790;SDS011;43621;51.798;21.588;2022-10-31T19:06:44;77.60;;;35.90;;
57790;SDS011;43621;51.798;21.588;2022-10-31T19:10:49;85.00;;;36.70;;
57790;SDS011;43621;51.798;21.588;2022-10-31T19:14:54;95.10;;;41.90;;
57790;SDS011;43621;51.798;21.588;2022-10-31T19:18:59;96.80;;;41.30;;
57790;SDS011;43621;51.798;21.588;2022-10-31T19:23:04;167.80;;;73.20;;
57790;SDS011;43621;51.798;21.588;2022-10-31T19:27:09;144.90;;;60.40;;
57790;SDS011;43621;51.798;21.588;2022-10-31T19:31:14;89.10;;;44.80;;
57790;SDS011;43621;51.798;21.588;2022-10-31T19:35:20;89.30;;;42.20;;
57790;SDS011;43621;51.798;21.588;2022-10-31T19:39:25;103.20;;;45.60;;
57790;SDS011;43621;51.798;21.588;2022-10-31T19:43:30;117.30;;;49.60;;
57790;SDS011;43621;51.798;21.588;2022-10-31T19:47:35;94.30;;;46.90;;
57790;SDS011;43621;51.798;21.588;2022-10-31T19:51:40;94.60;;;42.60;;
57790;SDS011;43621;51.798;21.588;2022-10-31T19:55:45;123.30;;;54.00;;
57790;SDS011;43621;51.798;21.588;2022-10-31T19:59:50;119.80;;;49.20;;
57790;SDS011;43621;51.798;21.588;2022-10-31T20:03:55;94.80;;;39.50;;
57790;SDS011;43621;51.798;21.588;2022-10-31T20:08:00;80.30;;;33.40;;
57790;SDS011;43621;51.798;21.588;2022-10-31T20:12:06;67.10;;;29.90;;
57790;SDS011;43621;51.798;21.588;2022-10-31T20:16:11;79.60;;;31.90;;
57790;SDS011;43621;51.798;21.588;2022-10-31T20:20:17;77.00;;;37.70;;
57790;SDS011;43621;51.798;21.588;2022-10-31T20:24:22;81.50;;;34.00;;
57790;SDS011;43621;51.798;21.588;2022-10-31T20:28:28;94.50;;;38.00;;
57790;SDS011;43621;51.798;21.588;2022-10-31T20:32:34;69.80;;;29.30;;
57790;SDS011;43621;51.798;21.588;2022-10-31T20:36:39;70.10;;;30.60;;
57790;SDS011;43621;51.798;21.588;2022-10-31T20:40:44;67.50;;;27.20;;
57790;SDS011;43621;51.798;21.588;2022-10-31T20:44:49;90.80;;;33.10;;
57790;SDS011;43621;51.798;21.588;2022-10-31T20:48:54;62.70;;;27.50;;
57790;SDS011;43621;51.798;21.588;2022-10-31T20:52:59;68.30;;;28.30;;
57790;SDS011;43621;51.798;21.588;2022-10-31T20:57:04;56.50;;;26.50;;
57790;SDS011;43621;51.798;21.588;2022-10-31T21:01:10;67.40;;;23.90;;
57790;SDS011;43621;51.798;21.588;2022-10-31T21:05:17;54.20;;;25.50;;
57790;SDS011;43621;51.798;21.588;2022-10-31T21:09:22;52.40;;;24.10;;
57790;SDS011;43621;51.798;21.588;2022-10-31T21:13:27;53.30;;;25.20;;
57790;SDS011;43621;51.798;21.588;2022-10-31T21:17:32;66.70;;;22.90;;
57790;SDS011;43621;51.798;21.588;2022-10-31T21:21:37;59.20;;;25.30;;
57790;SDS011;43621;51.798;21.588;2022-10-31T21:25:42;64.40;;;29.20;;
57790;SDS011;43621;51.798;21.588;2022-10-31T21:29:47;70.60;;;31.20;;
57790;SDS011;43621;51.798;21.588;2022-10-31T21:33:52;84.30;;;32.30;;
57790;SDS011;43621;51.798;21.588;2022-10-31T21:37:58;55.10;;;25.50;;
57790;SDS011;43621;51.798;21.588;2022-10-31T21:42:03;67.90;;;25.00;;
57790;SDS011;43621;51.798;21.588;2022-10-31T21:46:09;65.10;;;28.20;;
57790;SDS011;43621;51.798;21.588;2022-10-31T21:50:15;78.50;;;24.70;;
57790;SDS011;43621;51.798;21.588;2022-10-31T21:54:20;54.00;;;22.70;;
57790;SDS011;43621;51.798;21.588;2022-10-31T22:02:36;64.40;;;23.20;;
57790;SDS011;43621;51.798;21.588;2022-10-31T22:06:41;68.80;;;20.30;;
57790;SDS011;43621;51.798;21.588;2022-10-31T22:10:47;52.60;;;18.10;;
57790;SDS011;43621;51.798;21.588;2022-10-31T22:14:52;48.30;;;19.20;;
57790;SDS011;43621;51.798;21.588;2022-10-31T22:18:57;49.50;;;19.00;;
57790;SDS011;43621;51.798;21.588;2022-10-31T22:23:07;45.80;;;20.40;;
57790;SDS011;43621;51.798;21.588;2022-10-31T22:27:12;53.40;;;20.20;;
57790;SDS011;43621;51.798;21.588;2022-10-31T22:31:17;46.40;;;17.80;;
57790;SDS011;43621;51.798;21.588;2022-10-31T22:35:23;66.00;;;19.70;;
57790;SDS011;43621;51.798;21.588;2022-10-31T22:39:28;54.60;;;20.20;;
57790;SDS011;43621;51.798;21.588;2022-10-31T22:43:33;50.30;;;19.50;;
57790;SDS011;43621;51.798;21.588;2022-10-31T22:47:40;52.30;;;20.30;;
57790;SDS011;43621;51.798;21.588;2022-10-31T22:51:45;38.70;;;18.10;;
57790;SDS011;43621;51.798;21.588;2022-10-31T22:55:51;47.20;;;16.10;;
57790;SDS011;43621;51.798;21.588;2022-10-31T22:59:56;49.50;;;16.30;;
57790;SDS011;43621;51.798;21.588;2022-10-31T23:04:01;55.50;;;17.30;;
57790;SDS011;43621;51.798;21.588;2022-10-31T23:08:06;58.80;;;17.00;;
57790;SDS011;43621;51.798;21.588;2022-10-31T23:12:11;34.10;;;15.20;;
57790;SDS011;43621;51.798;21.588;2022-10-31T23:16:35;31.50;;;15.90;;
57790;SDS011;43621;51.798;21.588;2022-10-31T23:20:43;32.20;;;16.80;;
57790;SDS011;43621;51.798;21.588;2022-10-31T23:24:54;37.40;;;15.70;;
57790;SDS011;43621;51.798;21.588;2022-10-31T23:28:59;37.20;;;15.30;;
57790;SDS011;43621;51.798;21.588;2022-10-31T23:33:04;48.40;;;16.10;;
57790;SDS011;43621;51.798;21.588;2022-10-31T23:37:09;53.50;;;14.90;;
57790;SDS011;43621;51.798;21.588;2022-10-31T23:41:14;36.70;;;15.70;;
57790;SDS011;43621;51.798;21.588;2022-10-31T23:45:19;46.90;;;15.10;;
57790;SDS011;43621;51.798;21.588;2022-10-31T23:49:24;42.50;;;14.90;;
57790;SDS011;43621;51.798;21.588;2022-10-31T23:53:30;49.90;;;15.80;;
57790;SDS011;43621;51.798;21.588;2022-10-31T23:57:35;35.40;;;15.40;;
